Time;durP1;ratioP1;P1;durP2;ratioP2;P2;SDS_P1;SDS_P2;PMS_P1;PMS_P2;Temp;Humidity;BMP_temperature;BMP_pressure;BME280_temperature;BME280_humidity;BME280_pressure;Samples;Min_cycle;Max_cycle;Signal;HPM_P1;HPM_P2
2022/12/21 14:02:25;;;;;;;0.55;0.40;;;;;;;9.59;100.00;97884.94;15302669;19;20015;-86
2022/12/21 14:08:19;;;;;;;0.30;0.30;;;;;;;9.91;100.00;97877.88;15317329;19;20483;-88
2022/12/21 14:14:16;;;;;;;0.57;0.30;;;;;;;10.05;100.00;97893.31;15314855;19;20020;-87
2022/12/21 14:19:53;;;;;;;0.50;0.40;;;;;;;10.03;100.00;97881.88;15314655;19;20031;-85
2022/12/21 14:25:28;;;;;;;0.20;0.20;;;;;;;10.02;100.00;97867.56;15306820;19;20083;-88
2022/12/21 14:31:03;;;;;;;2.83;0.43;;;;;;;9.96;100.00;97868.28;15303966;19;20054;-86
2022/12/21 14:36:42;;;;;;;0.20;0.20;;;;;;;9.83;100.00;97866.09;15304459;19;20011;-86
2022/12/21 14:42:38;;;;;;;0.30;0.30;;;;;;;9.62;100.00;97896.22;15308873;19;20003;-86
2022/12/21 14:48:46;;;;;;;0.40;0.40;;;;;;;9.43;100.00;97897.38;15322101;19;20070;-88
2022/12/21 14:54:15;;;;;;;0.50;0.50;;;;;;;9.28;100.00;97893.66;15308405;19;20024;-85
2022/12/21 14:59:53;;;;;;;1.40;0.32;;;;;;;9.04;100.00;97906.06;15308884;19;20021;-85
2022/12/21 15:11:05;;;;;;;0.43;0.28;;;;;;;8.66;100.00;97905.59;15301531;19;20010;-85
2022/12/21 15:16:33;;;;;;;0.32;0.30;;;;;;;8.47;100.00;97902.13;15296919;19;20847;-87
2022/12/21 15:22:29;;;;;;;0.20;0.20;;;;;;;8.27;100.00;97894.31;15292985;19;20023;-88
2022/12/21 15:28:04;;;;;;;0.17;0.17;;;;;;;8.15;100.00;97909.84;15297422;19;20018;-83
2022/12/21 15:33:35;;;;;;;0.32;0.30;;;;;;;8.02;100.00;97904.91;15328622;19;20022;-85
2022/12/21 15:39:04;;;;;;;0.40;0.40;;;;;;;7.92;100.00;97917.59;15334499;19;20035;-83
2022/12/21 15:44:42;;;;;;;0.50;0.50;;;;;;;7.87;100.00;97927.94;15353534;19;20070;-86
2022/12/21 15:50:15;;;;;;;0.40;0.40;;;;;;;7.82;100.00;97928.41;15305900;19;20417;-85
2022/12/21 15:55:40;;;;;;;;;;;;;;;7.67;100.00;97925.44;15294909;19;20083;-85
2022/12/21 16:01:19;;;;;;;0.95;0.40;;;;;;;7.74;100.00;97927.50;15290432;19;20384;-88
2022/12/21 16:06:50;;;;;;;0.63;0.30;;;;;;;7.65;100.00;97930.13;15299552;19;20082;-88
2022/12/21 16:12:33;;;;;;;1.20;1.10;;;;;;;7.57;100.00;97938.09;15298249;19;20457;-87
2022/12/21 16:18:18;;;;;;;0.57;0.57;;;;;;;7.58;100.00;97945.16;15296135;19;20026;-85
2022/12/21 16:23:45;;;;;;;0.82;0.70;;;;;;;7.48;100.00;97939.00;15295056;19;20015;-86
2022/12/21 16:29:21;;;;;;;0.45;0.45;;;;;;;7.36;100.00;97954.47;15292968;19;20014;-85
2022/12/21 16:34:51;;;;;;;0.68;0.60;;;;;;;7.31;100.00;97949.56;15290632;19;20019;-85
2022/12/21 16:40:22;;;;;;;0.60;0.60;;;;;;;7.22;100.00;97940.59;15298360;19;20006;-84
2022/12/21 16:46:09;;;;;;;0.40;0.40;;;;;;;7.11;100.00;97934.63;15295546;19;20035;-86
2022/12/21 16:51:43;;;;;;;0.80;0.40;;;;;;;7.03;100.00;97935.38;15302975;19;20014;-86
2022/12/21 16:57:11;;;;;;;0.70;0.60;;;;;;;6.96;100.00;97945.84;15289707;19;20027;-84
2022/12/21 17:02:44;;;;;;;0.85;0.68;;;;;;;6.92;100.00;97944.47;15289831;19;20350;-85
2022/12/21 17:08:21;;;;;;;0.60;0.60;;;;;;;6.86;100.00;97955.78;15287437;19;20405;-83
2022/12/21 17:13:47;;;;;;;0.95;0.63;;;;;;;6.79;100.00;97951.00;15294070;19;20025;-85
2022/12/21 17:19:23;;;;;;;0.82;0.82;;;;;;;6.71;100.00;97942.88;15294108;19;20078;-84
2022/12/21 17:24:51;;;;;;;1.50;1.40;;;;;;;6.76;100.00;97962.00;15290487;19;20014;-81
2022/12/21 17:30:16;;;;;;;1.92;1.58;;;;;;;6.75;100.00;97973.75;15287795;19;20070;-86
2022/12/21 17:35:42;;;;;;;1.38;1.27;;;;;;;6.74;100.00;97980.09;15292379;19;20081;-87
2022/12/21 17:41:02;;;;;;;1.23;1.10;;;;;;;6.74;100.00;97971.19;15302261;19;20018;-86
2022/12/21 17:46:29;;;;;;;1.73;1.30;;;;;;;6.72;100.00;97974.03;15308025;19;20010;-87
2022/12/21 17:51:54;;;;;;;1.23;1.13;;;;;;;6.74;100.00;97972.06;15305474;19;20014;-86
2022/12/21 17:57:22;;;;;;;1.33;1.23;;;;;;;6.72;100.00;97971.34;15304866;19;20014;-86
2022/12/21 18:02:55;;;;;;;1.83;1.40;;;;;;;6.71;100.00;97969.66;15298150;19;20054;-87
2022/12/21 18:08:21;;;;;;;2.80;2.08;;;;;;;6.70;100.00;97970.66;15304627;19;20014;-84
2022/12/21 18:13:49;;;;;;;3.22;2.78;;;;;;;6.67;100.00;97964.75;15304010;19;20018;-86
2022/12/21 18:19:17;;;;;;;1.65;1.55;;;;;;;6.62;100.00;97963.34;15322449;19;20015;-84
2022/12/21 18:24:42;;;;;;;1.73;1.63;;;;;;;6.63;100.00;97972.25;15309576;19;20340;-84
2022/12/21 18:30:13;;;;;;;1.48;1.38;;;;;;;6.61;100.00;97968.88;15312087;19;20050;-84
2022/12/21 18:35:39;;;;;;;2.33;1.50;;;;;;;6.60;100.00;97970.69;15299017;19;20018;-83
2022/12/21 18:41:04;;;;;;;2.00;1.90;;;;;;;6.62;100.00;97957.16;15306219;19;20469;-86
2022/12/21 18:46:33;;;;;;;1.88;1.77;;;;;;;6.62;100.00;97966.03;15319258;19;20031;-83
2022/12/21 18:51:58;;;;;;;1.92;1.83;;;;;;;6.73;100.00;97970.34;15331460;19;20010;-86
2022/12/21 18:57:26;;;;;;;1.63;1.50;;;;;;;6.78;100.00;97957.34;15360143;19;20014;-86
2022/12/21 19:03:00;;;;;;;1.70;1.60;;;;;;;6.78;100.00;97949.31;15299355;19;20070;-85
2022/12/21 19:08:26;;;;;;;1.67;1.58;;;;;;;6.75;100.00;97954.13;15297550;19;20046;-85
2022/12/21 19:13:51;;;;;;;1.70;1.60;;;;;;;6.72;100.00;97946.41;15293005;19;20051;-84
2022/12/21 19:19:25;;;;;;;1.90;1.80;;;;;;;6.66;100.00;97945.16;15295058;19;20010;-82
2022/12/21 19:24:50;;;;;;;2.13;1.80;;;;;;;6.63;100.00;97945.47;15297221;19;20014;-84
2022/12/21 19:30:20;;;;;;;2.00;1.80;;;;;;;6.54;100.00;97938.31;15304208;19;20011;-86
2022/12/21 19:35:52;;;;;;;1.70;1.60;;;;;;;6.49;100.00;97938.75;15297156;19;20024;-86
2022/12/21 19:41:19;;;;;;;2.72;1.60;;;;;;;6.44;100.00;97923.16;15291515;19;20492;-84
2022/12/21 19:46:40;;;;;;;2.10;1.85;;;;;;;6.45;100.00;97930.19;15297776;19;20010;-85
2022/12/21 19:52:07;;;;;;;2.08;1.88;;;;;;;6.44;100.00;97939.19;15301806;19;20022;-86
2022/12/21 19:57:38;;;;;;;1.80;1.70;;;;;;;6.44;100.00;97941.03;15298264;19;20011;-83
2022/12/21 20:03:09;;;;;;;2.00;1.90;;;;;;;6.43;100.00;97925.97;15296989;19;20070;-85
2022/12/21 20:08:36;;;;;;;2.03;1.90;;;;;;;6.40;100.00;97924.44;15302893;19;20014;-85
2022/12/21 20:14:08;;;;;;;1.98;1.60;;;;;;;6.41;100.00;97917.25;15267038;19;20535;-82
2022/12/21 20:19:35;;;;;;;1.95;1.80;;;;;;;6.42;100.00;97911.75;15297611;19;20025;-82
2022/12/21 20:25:03;;;;;;;1.63;1.52;;;;;;;6.43;100.00;97910.75;15302142;19;20017;-84
2022/12/21 20:30:30;;;;;;;1.80;1.70;;;;;;;6.43;100.00;97902.72;15279257;19;20018;-85
2022/12/21 20:35:55;;;;;;;2.10;1.90;;;;;;;6.42;100.00;97895.69;15300996;19;20535;-85
2022/12/21 20:41:23;;;;;;;2.00;1.90;;;;;;;6.42;100.00;97893.00;15304783;19;20023;-83
2022/12/21 20:46:49;;;;;;;1.98;1.80;;;;;;;6.42;100.00;97893.00;15299643;19;20014;-84
2022/12/21 20:52:21;;;;;;;1.90;1.80;;;;;;;6.39;100.00;97893.31;15296437;19;20006;-83
